sensor_id;sensor_type;location;lat;lon;timestamp;temperature;humidity
24638;DHT22;12773;50.162;8.548;2023-12-22T00:00:22;6.20;99.90
24638;DHT22;12773;50.162;8.548;2023-12-22T00:03:09;6.30;99.90
24638;DHT22;12773;50.162;8.548;2023-12-22T00:05:57;6.20;99.90
24638;DHT22;12773;50.162;8.548;2023-12-22T00:08:45;6.20;99.90
24638;DHT22;12773;50.162;8.548;2023-12-22T00:11:32;6.20;99.90
24638;DHT22;12773;50.162;8.548;2023-12-22T00:14:20;6.20;99.90
24638;DHT22;12773;50.162;8.548;2023-12-22T00:17:08;6.20;99.90
24638;DHT22;12773;50.162;8.548;2023-12-22T00:19:55;6.10;99.90
24638;DHT22;12773;50.162;8.548;2023-12-22T00:22:44;6.20;99.90
24638;DHT22;12773;50.162;8.548;2023-12-22T00:25:32;6.20;99.90
24638;DHT22;12773;50.162;8.548;2023-12-22T00:28:20;6.20;99.90
24638;DHT22;12773;50.162;8.548;2023-12-22T00:31:07;6.20;99.90
24638;DHT22;12773;50.162;8.548;2023-12-22T00:33:55;6.30;99.90
24638;DHT22;12773;50.162;8.548;2023-12-22T00:36:42;6.30;99.90
24638;DHT22;12773;50.162;8.548;2023-12-22T00:39:30;6.30;99.90
24638;DHT22;12773;50.162;8.548;2023-12-22T00:42:17;6.20;99.90
24638;DHT22;12773;50.162;8.548;2023-12-22T00:45:06;6.20;99.90
24638;DHT22;12773;50.162;8.548;2023-12-22T00:47:53;6.30;99.90
24638;DHT22;12773;50.162;8.548;2023-12-22T00:50:41;6.30;99.90
24638;DHT22;12773;50.162;8.548;2023-12-22T00:53:28;6.30;99.90
24638;DHT22;12773;50.162;8.548;2023-12-22T00:56:16;6.30;99.90
24638;DHT22;12773;50.162;8.548;2023-12-22T00:59:03;6.40;99.90
24638;DHT22;12773;50.162;8.548;2023-12-22T01:01:52;6.40;99.90
24638;DHT22;12773;50.162;8.548;2023-12-22T01:04:40;6.40;99.90
24638;DHT22;12773;50.162;8.548;2023-12-22T01:07:28;6.40;99.90
24638;DHT22;12773;50.162;8.548;2023-12-22T01:10:15;6.50;99.90
24638;DHT22;12773;50.162;8.548;2023-12-22T01:13:03;6.60;99.90
24638;DHT22;12773;50.162;8.548;2023-12-22T01:15:50;6.70;99.90
24638;DHT22;12773;50.162;8.548;2023-12-22T01:18:38;6.80;99.90
24638;DHT22;12773;50.162;8.548;2023-12-22T01:21:27;6.70;99.90
24638;DHT22;12773;50.162;8.548;2023-12-22T01:24:14;6.80;99.90
24638;DHT22;12773;50.162;8.548;2023-12-22T01:27:02;6.70;99.90
24638;DHT22;12773;50.162;8.548;2023-12-22T01:29:50;6.60;99.90
24638;DHT22;12773;50.162;8.548;2023-12-22T01:32:37;6.30;99.90
24638;DHT22;12773;50.162;8.548;2023-12-22T01:35:25;6.20;99.90
24638;DHT22;12773;50.162;8.548;2023-12-22T01:38:13;6.10;99.90
24638;DHT22;12773;50.162;8.548;2023-12-22T01:41:00;6.10;99.90
24638;DHT22;12773;50.162;8.548;2023-12-22T01:43:47;6.00;99.90
24638;DHT22;12773;50.162;8.548;2023-12-22T01:46:36;5.90;99.90
24638;DHT22;12773;50.162;8.548;2023-12-22T01:49:23;5.80;99.90
24638;DHT22;12773;50.162;8.548;2023-12-22T01:52:12;5.80;99.90
24638;DHT22;12773;50.162;8.548;2023-12-22T01:55:00;5.70;99.90
24638;DHT22;12773;50.162;8.548;2023-12-22T01:57:49;5.60;99.90
24638;DHT22;12773;50.162;8.548;2023-12-22T02:00:37;5.50;99.90
24638;DHT22;12773;50.162;8.548;2023-12-22T02:03:25;5.50;99.90
24638;DHT22;12773;50.162;8.548;2023-12-22T02:06:12;5.50;99.90
24638;DHT22;12773;50.162;8.548;2023-12-22T02:09:01;5.30;99.90
24638;DHT22;12773;50.162;8.548;2023-12-22T02:11:50;5.20;99.90
24638;DHT22;12773;50.162;8.548;2023-12-22T02:14:41;5.20;99.90
24638;DHT22;12773;50.162;8.548;2023-12-22T02:17:34;5.20;99.90
24638;DHT22;12773;50.162;8.548;2023-12-22T02:20:21;5.20;99.90
24638;DHT22;12773;50.162;8.548;2023-12-22T02:23:09;5.20;99.90
24638;DHT22;12773;50.162;8.548;2023-12-22T02:26:04;5.20;99.90
24638;DHT22;12773;50.162;8.548;2023-12-22T02:28:47;5.20;99.90
24638;DHT22;12773;50.162;8.548;2023-12-22T02:31:40;5.20;99.90
24638;DHT22;12773;50.162;8.548;2023-12-22T02:34:29;5.20;99.90
24638;DHT22;12773;50.162;8.548;2023-12-22T02:37:18;5.30;99.90
24638;DHT22;12773;50.162;8.548;2023-12-22T02:40:08;5.40;99.90
24638;DHT22;12773;50.162;8.548;2023-12-22T02:43:01;5.30;99.90
24638;DHT22;12773;50.162;8.548;2023-12-22T02:45:49;5.20;99.90
24638;DHT22;12773;50.162;8.548;2023-12-22T02:48:35;5.20;99.90
24638;DHT22;12773;50.162;8.548;2023-12-22T02:51:23;5.20;99.90
24638;DHT22;12773;50.162;8.548;2023-12-22T02:54:10;5.20;99.90
24638;DHT22;12773;50.162;8.548;2023-12-22T02:57:00;5.30;99.90
24638;DHT22;12773;50.162;8.548;2023-12-22T02:59:47;5.30;99.90
24638;DHT22;12773;50.162;8.548;2023-12-22T03:02:35;5.30;99.90
24638;DHT22;12773;50.162;8.548;2023-12-22T03:05:24;5.30;99.90
24638;DHT22;12773;50.162;8.548;2023-12-22T03:08:11;5.40;99.90
24638;DHT22;12773;50.162;8.548;2023-12-22T03:13:32;5.40;99.90
24638;DHT22;12773;50.162;8.548;2023-12-22T03:16:20;5.60;99.90
24638;DHT22;12773;50.162;8.548;2023-12-22T03:19:07;5.70;99.90
24638;DHT22;12773;50.162;8.548;2023-12-22T03:21:55;5.80;99.90
24638;DHT22;12773;50.162;8.548;2023-12-22T03:24:43;5.80;99.90
24638;DHT22;12773;50.162;8.548;2023-12-22T03:27:31;5.80;99.90
24638;DHT22;12773;50.162;8.548;2023-12-22T03:30:19;5.90;99.90
24638;DHT22;12773;50.162;8.548;2023-12-22T03:33:06;6.00;99.90
24638;DHT22;12773;50.162;8.548;2023-12-22T03:35:54;6.00;99.90
24638;DHT22;12773;50.162;8.548;2023-12-22T03:38:41;6.00;99.90
24638;DHT22;12773;50.162;8.548;2023-12-22T03:41:29;6.10;99.90
24638;DHT22;12773;50.162;8.548;2023-12-22T03:44:17;6.20;99.90
24638;DHT22;12773;50.162;8.548;2023-12-22T03:47:06;6.30;99.90
24638;DHT22;12773;50.162;8.548;2023-12-22T03:49:54;6.10;99.90
24638;DHT22;12773;50.162;8.548;2023-12-22T03:52:41;6.00;99.90
24638;DHT22;12773;50.162;8.548;2023-12-22T03:55:29;6.10;99.90
24638;DHT22;12773;50.162;8.548;2023-12-22T03:58:17;6.10;99.90
24638;DHT22;12773;50.162;8.548;2023-12-22T04:01:04;6.10;99.90
24638;DHT22;12773;50.162;8.548;2023-12-22T04:03:54;6.10;99.90
24638;DHT22;12773;50.162;8.548;2023-12-22T04:06:42;6.10;99.90
24638;DHT22;12773;50.162;8.548;2023-12-22T04:09:29;6.20;99.90
24638;DHT22;12773;50.162;8.548;2023-12-22T04:12:17;6.30;99.90
24638;DHT22;12773;50.162;8.548;2023-12-22T04:15:06;6.30;99.90
24638;DHT22;12773;50.162;8.548;2023-12-22T04:17:53;6.30;99.90
24638;DHT22;12773;50.162;8.548;2023-12-22T04:20:41;6.40;99.90
24638;DHT22;12773;50.162;8.548;2023-12-22T04:23:28;6.40;99.90
24638;DHT22;12773;50.162;8.548;2023-12-22T04:26:16;6.50;99.90
24638;DHT22;12773;50.162;8.548;2023-12-22T04:29:03;6.60;99.90
24638;DHT22;12773;50.162;8.548;2023-12-22T04:31:51;6.70;99.90
24638;DHT22;12773;50.162;8.548;2023-12-22T04:34:38;6.70;99.90
24638;DHT22;12773;50.162;8.548;2023-12-22T04:37:26;6.70;99.90
24638;DHT22;12773;50.162;8.548;2023-12-22T04:40:13;6.70;99.90
24638;DHT22;12773;50.162;8.548;2023-12-22T04:43:01;6.80;99.90
24638;DHT22;12773;50.162;8.548;2023-12-22T04:45:48;6.80;99.90
24638;DHT22;12773;50.162;8.548;2023-12-22T04:48:36;6.90;99.90
24638;DHT22;12773;50.162;8.548;2023-12-22T04:51:24;6.90;99.90
24638;DHT22;12773;50.162;8.548;2023-12-22T04:54:11;7.00;99.90
24638;DHT22;12773;50.162;8.548;2023-12-22T04:56:59;7.10;99.90
24638;DHT22;12773;50.162;8.548;2023-12-22T04:59:46;7.00;99.90
24638;DHT22;12773;50.162;8.548;2023-12-22T05:02:34;7.00;99.90
24638;DHT22;12773;50.162;8.548;2023-12-22T05:05:22;7.00;99.90
24638;DHT22;12773;50.162;8.548;2023-12-22T05:08:09;6.90;99.90
24638;DHT22;12773;50.162;8.548;2023-12-22T05:10:57;6.90;99.90
24638;DHT22;12773;50.162;8.548;2023-12-22T05:13:44;6.90;99.90
24638;DHT22;12773;50.162;8.548;2023-12-22T05:16:32;6.90;99.90
24638;DHT22;12773;50.162;8.548;2023-12-22T05:19:19;6.90;99.90
24638;DHT22;12773;50.162;8.548;2023-12-22T05:22:07;6.80;99.90
24638;DHT22;12773;50.162;8.548;2023-12-22T05:24:54;6.80;99.90
24638;DHT22;12773;50.162;8.548;2023-12-22T05:27:42;6.70;99.90
24638;DHT22;12773;50.162;8.548;2023-12-22T05:30:29;6.60;99.90
24638;DHT22;12773;50.162;8.548;2023-12-22T05:33:17;6.70;99.90
24638;DHT22;12773;50.162;8.548;2023-12-22T05:36:05;6.60;99.90
24638;DHT22;12773;50.162;8.548;2023-12-22T05:38:52;6.60;99.90
24638;DHT22;12773;50.162;8.548;2023-12-22T05:41:40;6.80;99.90
24638;DHT22;12773;50.162;8.548;2023-12-22T05:44:27;6.80;99.90
24638;DHT22;12773;50.162;8.548;2023-12-22T05:47:17;6.90;99.90
24638;DHT22;12773;50.162;8.548;2023-12-22T05:50:05;6.90;99.90
24638;DHT22;12773;50.162;8.548;2023-12-22T05:52:52;6.80;99.90
24638;DHT22;12773;50.162;8.548;2023-12-22T05:55:40;6.80;99.90
24638;DHT22;12773;50.162;8.548;2023-12-22T05:58:28;6.80;99.90
24638;DHT22;12773;50.162;8.548;2023-12-22T06:01:17;6.80;99.90
24638;DHT22;12773;50.162;8.548;2023-12-22T06:04:05;6.90;99.90
24638;DHT22;12773;50.162;8.548;2023-12-22T06:06:52;6.90;99.90
24638;DHT22;12773;50.162;8.548;2023-12-22T06:09:40;6.90;99.90
24638;DHT22;12773;50.162;8.548;2023-12-22T06:12:28;7.00;99.90
24638;DHT22;12773;50.162;8.548;2023-12-22T06:15:15;7.10;99.90
24638;DHT22;12773;50.162;8.548;2023-12-22T06:18:03;7.20;99.90
24638;DHT22;12773;50.162;8.548;2023-12-22T06:20:51;7.20;99.90
24638;DHT22;12773;50.162;8.548;2023-12-22T06:23:39;7.30;99.90
24638;DHT22;12773;50.162;8.548;2023-12-22T06:26:26;7.30;99.90
24638;DHT22;12773;50.162;8.548;2023-12-22T06:29:14;7.30;99.90
24638;DHT22;12773;50.162;8.548;2023-12-22T06:32:02;7.40;99.90
24638;DHT22;12773;50.162;8.548;2023-12-22T06:34:51;7.40;99.90
24638;DHT22;12773;50.162;8.548;2023-12-22T06:37:38;7.40;99.90
24638;DHT22;12773;50.162;8.548;2023-12-22T06:40:25;7.50;99.90
24638;DHT22;12773;50.162;8.548;2023-12-22T06:43:13;7.40;99.90
24638;DHT22;12773;50.162;8.548;2023-12-22T06:46:01;7.50;99.90
24638;DHT22;12773;50.162;8.548;2023-12-22T06:48:49;7.60;99.90
24638;DHT22;12773;50.162;8.548;2023-12-22T06:51:36;7.60;99.90
24638;DHT22;12773;50.162;8.548;2023-12-22T06:54:24;7.60;99.90
24638;DHT22;12773;50.162;8.548;2023-12-22T06:57:11;7.60;99.90
24638;DHT22;12773;50.162;8.548;2023-12-22T07:00:01;7.60;99.90
24638;DHT22;12773;50.162;8.548;2023-12-22T07:02:49;7.60;99.90
24638;DHT22;12773;50.162;8.548;2023-12-22T07:05:36;7.60;99.90
24638;DHT22;12773;50.162;8.548;2023-12-22T07:08:24;7.60;99.90
24638;DHT22;12773;50.162;8.548;2023-12-22T07:11:12;7.60;99.90
24638;DHT22;12773;50.162;8.548;2023-12-22T07:13:59;7.60;99.90
24638;DHT22;12773;50.162;8.548;2023-12-22T07:16:47;7.60;99.90
24638;DHT22;12773;50.162;8.548;2023-12-22T07:19:35;7.80;99.90
24638;DHT22;12773;50.162;8.548;2023-12-22T07:22:22;7.80;99.90
24638;DHT22;12773;50.162;8.548;2023-12-22T07:25:10;7.80;99.90
24638;DHT22;12773;50.162;8.548;2023-12-22T07:27:59;7.70;99.90
24638;DHT22;12773;50.162;8.548;2023-12-22T07:30:47;7.90;99.90
24638;DHT22;12773;50.162;8.548;2023-12-22T07:33:35;7.90;99.90
24638;DHT22;12773;50.162;8.548;2023-12-22T07:36:23;7.90;99.90
24638;DHT22;12773;50.162;8.548;2023-12-22T07:39:10;8.00;99.90
24638;DHT22;12773;50.162;8.548;2023-12-22T07:41:58;8.10;99.90
24638;DHT22;12773;50.162;8.548;2023-12-22T07:44:45;8.20;99.90
24638;DHT22;12773;50.162;8.548;2023-12-22T07:47:33;8.20;99.90
24638;DHT22;12773;50.162;8.548;2023-12-22T07:50:22;8.20;99.90
24638;DHT22;12773;50.162;8.548;2023-12-22T07:53:10;8.20;99.90
24638;DHT22;12773;50.162;8.548;2023-12-22T07:55:57;8.20;99.90
24638;DHT22;12773;50.162;8.548;2023-12-22T07:58:45;8.20;99.90
24638;DHT22;12773;50.162;8.548;2023-12-22T08:01:33;8.20;99.90
24638;DHT22;12773;50.162;8.548;2023-12-22T08:04:20;8.20;99.90
24638;DHT22;12773;50.162;8.548;2023-12-22T08:07:08;8.30;99.90
24638;DHT22;12773;50.162;8.548;2023-12-22T08:09:56;8.30;99.90
24638;DHT22;12773;50.162;8.548;2023-12-22T08:12:43;8.30;99.90
24638;DHT22;12773;50.162;8.548;2023-12-22T08:15:31;8.40;99.90
24638;DHT22;12773;50.162;8.548;2023-12-22T08:18:19;8.40;99.90
24638;DHT22;12773;50.162;8.548;2023-12-22T08:21:08;8.50;99.90
24638;DHT22;12773;50.162;8.548;2023-12-22T08:23:57;8.60;99.90
24638;DHT22;12773;50.162;8.548;2023-12-22T08:26:44;8.60;99.90
24638;DHT22;12773;50.162;8.548;2023-12-22T08:29:31;8.60;99.90
24638;DHT22;12773;50.162;8.548;2023-12-22T08:32:20;8.50;99.90
24638;DHT22;12773;50.162;8.548;2023-12-22T08:35:08;8.50;99.90
24638;DHT22;12773;50.162;8.548;2023-12-22T08:37:55;8.40;99.90
24638;DHT22;12773;50.162;8.548;2023-12-22T08:40:44;8.20;99.90
24638;DHT22;12773;50.162;8.548;2023-12-22T08:43:32;8.10;99.90
24638;DHT22;12773;50.162;8.548;2023-12-22T08:46:19;7.90;99.90
24638;DHT22;12773;50.162;8.548;2023-12-22T08:49:07;7.80;99.90
24638;DHT22;12773;50.162;8.548;2023-12-22T08:51:54;7.90;99.90
24638;DHT22;12773;50.162;8.548;2023-12-22T08:54:42;8.00;99.90
24638;DHT22;12773;50.162;8.548;2023-12-22T08:57:30;7.90;99.90
24638;DHT22;12773;50.162;8.548;2023-12-22T09:00:17;7.80;99.90
24638;DHT22;12773;50.162;8.548;2023-12-22T09:03:05;7.80;99.90
24638;DHT22;12773;50.162;8.548;2023-12-22T09:05:53;7.70;99.90
24638;DHT22;12773;50.162;8.548;2023-12-22T09:08:40;7.80;99.90
24638;DHT22;12773;50.162;8.548;2023-12-22T09:11:28;7.80;99.90
24638;DHT22;12773;50.162;8.548;2023-12-22T09:14:16;7.80;99.90
24638;DHT22;12773;50.162;8.548;2023-12-22T09:17:03;7.90;99.90
24638;DHT22;12773;50.162;8.548;2023-12-22T09:19:50;7.90;99.90
24638;DHT22;12773;50.162;8.548;2023-12-22T09:22:38;7.90;99.90
24638;DHT22;12773;50.162;8.548;2023-12-22T09:25:25;7.90;99.90
24638;DHT22;12773;50.162;8.548;2023-12-22T09:28:13;8.00;99.90
24638;DHT22;12773;50.162;8.548;2023-12-22T09:31:01;7.90;99.90
24638;DHT22;12773;50.162;8.548;2023-12-22T09:33:48;7.90;99.90
24638;DHT22;12773;50.162;8.548;2023-12-22T09:36:36;7.80;99.90
24638;DHT22;12773;50.162;8.548;2023-12-22T09:39:23;7.80;99.90
24638;DHT22;12773;50.162;8.548;2023-12-22T09:42:11;8.00;99.90
24638;DHT22;12773;50.162;8.548;2023-12-22T09:45:00;8.00;99.90
24638;DHT22;12773;50.162;8.548;2023-12-22T09:47:50;7.80;99.90
24638;DHT22;12773;50.162;8.548;2023-12-22T09:50:42;7.90;99.90
24638;DHT22;12773;50.162;8.548;2023-12-22T09:53:31;7.90;99.90
24638;DHT22;12773;50.162;8.548;2023-12-22T09:56:19;8.00;99.90
24638;DHT22;12773;50.162;8.548;2023-12-22T09:59:12;8.00;99.90
24638;DHT22;12773;50.162;8.548;2023-12-22T10:02:01;8.00;99.90
24638;DHT22;12773;50.162;8.548;2023-12-22T10:04:49;8.00;99.90
24638;DHT22;12773;50.162;8.548;2023-12-22T10:07:37;8.10;99.90
24638;DHT22;12773;50.162;8.548;2023-12-22T10:10:26;8.20;99.90
24638;DHT22;12773;50.162;8.548;2023-12-22T10:13:15;8.20;99.90
24638;DHT22;12773;50.162;8.548;2023-12-22T10:16:04;8.30;99.90
24638;DHT22;12773;50.162;8.548;2023-12-22T10:18:52;8.30;99.90
24638;DHT22;12773;50.162;8.548;2023-12-22T10:21:41;8.30;99.90
24638;DHT22;12773;50.162;8.548;2023-12-22T10:24:42;8.40;99.90
24638;DHT22;12773;50.162;8.548;2023-12-22T10:27:30;8.50;99.90
24638;DHT22;12773;50.162;8.548;2023-12-22T10:30:18;8.50;99.90
24638;DHT22;12773;50.162;8.548;2023-12-22T10:33:06;8.60;99.90
24638;DHT22;12773;50.162;8.548;2023-12-22T10:35:54;8.60;99.90
24638;DHT22;12773;50.162;8.548;2023-12-22T10:38:42;8.60;99.90
24638;DHT22;12773;50.162;8.548;2023-12-22T10:41:31;8.60;99.90
24638;DHT22;12773;50.162;8.548;2023-12-22T10:44:19;8.70;99.90
24638;DHT22;12773;50.162;8.548;2023-12-22T10:47:06;8.80;99.90
24638;DHT22;12773;50.162;8.548;2023-12-22T10:49:54;8.80;99.90
24638;DHT22;12773;50.162;8.548;2023-12-22T10:52:41;8.90;99.90
24638;DHT22;12773;50.162;8.548;2023-12-22T10:55:30;9.00;99.90
24638;DHT22;12773;50.162;8.548;2023-12-22T10:58:18;9.00;99.90
24638;DHT22;12773;50.162;8.548;2023-12-22T11:01:07;9.10;99.90
24638;DHT22;12773;50.162;8.548;2023-12-22T11:04:00;9.20;99.90
24638;DHT22;12773;50.162;8.548;2023-12-22T11:06:49;9.30;99.90
24638;DHT22;12773;50.162;8.548;2023-12-22T11:09:38;9.30;99.90
24638;DHT22;12773;50.162;8.548;2023-12-22T11:12:27;9.30;99.90
24638;DHT22;12773;50.162;8.548;2023-12-22T11:15:15;9.40;99.90
24638;DHT22;12773;50.162;8.548;2023-12-22T11:18:05;9.50;99.90
24638;DHT22;12773;50.162;8.548;2023-12-22T11:20:53;9.50;99.90
24638;DHT22;12773;50.162;8.548;2023-12-22T11:23:42;9.40;99.90
24638;DHT22;12773;50.162;8.548;2023-12-22T11:26:31;9.50;99.90
24638;DHT22;12773;50.162;8.548;2023-12-22T11:29:20;9.50;99.90
24638;DHT22;12773;50.162;8.548;2023-12-22T11:32:11;9.30;99.90
24638;DHT22;12773;50.162;8.548;2023-12-22T11:35:00;9.30;99.90
24638;DHT22;12773;50.162;8.548;2023-12-22T11:37:49;9.30;99.90
24638;DHT22;12773;50.162;8.548;2023-12-22T11:40:39;9.20;99.90
24638;DHT22;12773;50.162;8.548;2023-12-22T11:43:27;9.40;99.90
24638;DHT22;12773;50.162;8.548;2023-12-22T11:46:17;9.50;99.90
24638;DHT22;12773;50.162;8.548;2023-12-22T11:49:04;9.50;99.90
24638;DHT22;12773;50.162;8.548;2023-12-22T11:51:53;9.50;99.90
24638;DHT22;12773;50.162;8.548;2023-12-22T11:54:48;9.50;99.90
24638;DHT22;12773;50.162;8.548;2023-12-22T11:57:38;9.50;99.90
24638;DHT22;12773;50.162;8.548;2023-12-22T12:03:17;9.50;99.90
24638;DHT22;12773;50.162;8.548;2023-12-22T12:06:16;9.50;99.90
24638;DHT22;12773;50.162;8.548;2023-12-22T12:09:05;9.40;99.90
24638;DHT22;12773;50.162;8.548;2023-12-22T12:14:47;9.30;99.90
24638;DHT22;12773;50.162;8.548;2023-12-22T12:17:41;9.30;99.90
24638;DHT22;12773;50.162;8.548;2023-12-22T12:20:29;9.30;99.90
24638;DHT22;12773;50.162;8.548;2023-12-22T12:23:17;9.30;99.90
24638;DHT22;12773;50.162;8.548;2023-12-22T12:26:06;9.40;99.90
24638;DHT22;12773;50.162;8.548;2023-12-22T12:28:55;9.30;99.90
24638;DHT22;12773;50.162;8.548;2023-12-22T12:31:43;9.40;99.90
24638;DHT22;12773;50.162;8.548;2023-12-22T12:34:31;9.40;99.90
24638;DHT22;12773;50.162;8.548;2023-12-22T12:37:19;9.30;99.90
24638;DHT22;12773;50.162;8.548;2023-12-22T12:40:07;9.30;99.90
24638;DHT22;12773;50.162;8.548;2023-12-22T12:43:00;9.40;99.90
24638;DHT22;12773;50.162;8.548;2023-12-22T12:45:48;9.50;99.90
24638;DHT22;12773;50.162;8.548;2023-12-22T12:48:36;9.50;99.90
24638;DHT22;12773;50.162;8.548;2023-12-22T12:51:24;9.60;99.90
24638;DHT22;12773;50.162;8.548;2023-12-22T12:54:12;9.70;99.90
24638;DHT22;12773;50.162;8.548;2023-12-22T12:57:00;9.70;99.90
24638;DHT22;12773;50.162;8.548;2023-12-22T12:59:49;9.70;99.90
24638;DHT22;12773;50.162;8.548;2023-12-22T13:02:37;9.80;99.90
24638;DHT22;12773;50.162;8.548;2023-12-22T13:05:25;9.90;99.90
24638;DHT22;12773;50.162;8.548;2023-12-22T13:08:13;9.90;99.90
24638;DHT22;12773;50.162;8.548;2023-12-22T13:11:01;9.90;99.90
24638;DHT22;12773;50.162;8.548;2023-12-22T13:13:50;9.80;99.90
24638;DHT22;12773;50.162;8.548;2023-12-22T13:16:39;9.90;99.90
24638;DHT22;12773;50.162;8.548;2023-12-22T13:19:27;10.00;99.90
24638;DHT22;12773;50.162;8.548;2023-12-22T13:22:14;9.90;99.90
24638;DHT22;12773;50.162;8.548;2023-12-22T13:25:02;10.00;99.90
24638;DHT22;12773;50.162;8.548;2023-12-22T13:27:51;10.00;99.90
24638;DHT22;12773;50.162;8.548;2023-12-22T13:30:39;9.90;99.90
24638;DHT22;12773;50.162;8.548;2023-12-22T13:33:33;10.00;99.90
24638;DHT22;12773;50.162;8.548;2023-12-22T13:36:18;10.00;99.90
24638;DHT22;12773;50.162;8.548;2023-12-22T13:39:07;10.00;99.90
24638;DHT22;12773;50.162;8.548;2023-12-22T13:41:54;10.10;99.90
24638;DHT22;12773;50.162;8.548;2023-12-22T13:44:48;10.10;99.90
24638;DHT22;12773;50.162;8.548;2023-12-22T13:47:41;10.20;99.90
24638;DHT22;12773;50.162;8.548;2023-12-22T13:50:29;10.20;99.90
24638;DHT22;12773;50.162;8.548;2023-12-22T13:53:16;10.20;99.90
24638;DHT22;12773;50.162;8.548;2023-12-22T13:56:04;10.30;99.90
24638;DHT22;12773;50.162;8.548;2023-12-22T13:58:52;10.20;99.90
24638;DHT22;12773;50.162;8.548;2023-12-22T14:01:39;10.00;99.90
24638;DHT22;12773;50.162;8.548;2023-12-22T14:04:27;10.00;99.90
24638;DHT22;12773;50.162;8.548;2023-12-22T14:07:15;10.00;99.90
24638;DHT22;12773;50.162;8.548;2023-12-22T14:10:06;10.10;99.90
24638;DHT22;12773;50.162;8.548;2023-12-22T14:12:53;10.10;99.90
24638;DHT22;12773;50.162;8.548;2023-12-22T14:15:44;10.10;99.90
24638;DHT22;12773;50.162;8.548;2023-12-22T14:18:32;10.20;99.90
24638;DHT22;12773;50.162;8.548;2023-12-22T14:21:19;10.20;99.90
24638;DHT22;12773;50.162;8.548;2023-12-22T14:24:08;10.20;99.90
24638;DHT22;12773;50.162;8.548;2023-12-22T14:26:56;10.20;99.90
24638;DHT22;12773;50.162;8.548;2023-12-22T14:29:44;10.30;99.90
24638;DHT22;12773;50.162;8.548;2023-12-22T14:32:32;10.30;99.90
24638;DHT22;12773;50.162;8.548;2023-12-22T14:35:19;10.40;99.90
24638;DHT22;12773;50.162;8.548;2023-12-22T14:38:07;10.40;99.90
24638;DHT22;12773;50.162;8.548;2023-12-22T14:40:55;10.50;99.90
24638;DHT22;12773;50.162;8.548;2023-12-22T14:43:43;10.40;99.90
24638;DHT22;12773;50.162;8.548;2023-12-22T14:46:31;10.50;99.90
24638;DHT22;12773;50.162;8.548;2023-12-22T14:49:18;10.40;99.90
24638;DHT22;12773;50.162;8.548;2023-12-22T14:52:06;10.50;99.90
24638;DHT22;12773;50.162;8.548;2023-12-22T14:54:55;10.50;99.90
24638;DHT22;12773;50.162;8.548;2023-12-22T14:57:42;10.50;99.90
24638;DHT22;12773;50.162;8.548;2023-12-22T15:00:30;10.60;99.90
24638;DHT22;12773;50.162;8.548;2023-12-22T15:03:17;10.60;99.90
24638;DHT22;12773;50.162;8.548;2023-12-22T15:06:05;10.60;99.90
24638;DHT22;12773;50.162;8.548;2023-12-22T15:08:52;10.60;99.90
24638;DHT22;12773;50.162;8.548;2023-12-22T15:11:46;10.70;99.90
24638;DHT22;12773;50.162;8.548;2023-12-22T15:14:34;10.70;99.90
24638;DHT22;12773;50.162;8.548;2023-12-22T15:17:21;10.60;99.90
24638;DHT22;12773;50.162;8.548;2023-12-22T15:20:09;10.60;99.90
24638;DHT22;12773;50.162;8.548;2023-12-22T15:22:58;10.70;99.90
24638;DHT22;12773;50.162;8.548;2023-12-22T15:25:46;10.70;99.90
24638;DHT22;12773;50.162;8.548;2023-12-22T15:28:33;10.70;99.90
24638;DHT22;12773;50.162;8.548;2023-12-22T15:31:22;10.70;99.90
24638;DHT22;12773;50.162;8.548;2023-12-22T15:34:11;10.70;99.90
24638;DHT22;12773;50.162;8.548;2023-12-22T15:36:59;10.80;99.90
24638;DHT22;12773;50.162;8.548;2023-12-22T15:39:47;10.70;99.90
24638;DHT22;12773;50.162;8.548;2023-12-22T15:42:34;10.80;99.90
24638;DHT22;12773;50.162;8.548;2023-12-22T15:45:22;10.80;99.90
24638;DHT22;12773;50.162;8.548;2023-12-22T15:48:09;10.80;99.90
24638;DHT22;12773;50.162;8.548;2023-12-22T15:50:56;10.80;99.90
24638;DHT22;12773;50.162;8.548;2023-12-22T15:53:44;10.80;99.90
24638;DHT22;12773;50.162;8.548;2023-12-22T15:56:32;10.80;99.90
24638;DHT22;12773;50.162;8.548;2023-12-22T15:59:20;10.80;99.90
24638;DHT22;12773;50.162;8.548;2023-12-22T16:02:08;10.70;99.90
24638;DHT22;12773;50.162;8.548;2023-12-22T16:04:56;10.70;99.90
24638;DHT22;12773;50.162;8.548;2023-12-22T16:07:44;10.80;99.90
24638;DHT22;12773;50.162;8.548;2023-12-22T16:10:31;10.70;99.90
24638;DHT22;12773;50.162;8.548;2023-12-22T16:13:18;10.80;99.90
24638;DHT22;12773;50.162;8.548;2023-12-22T16:16:08;10.90;99.90
24638;DHT22;12773;50.162;8.548;2023-12-22T16:18:57;10.90;99.90
24638;DHT22;12773;50.162;8.548;2023-12-22T16:21:44;10.90;99.90
24638;DHT22;12773;50.162;8.548;2023-12-22T16:24:33;10.80;99.90
24638;DHT22;12773;50.162;8.548;2023-12-22T16:27:21;10.80;99.90
24638;DHT22;12773;50.162;8.548;2023-12-22T16:30:09;10.70;99.90
24638;DHT22;12773;50.162;8.548;2023-12-22T16:32:56;10.70;99.90
24638;DHT22;12773;50.162;8.548;2023-12-22T16:35:43;10.60;99.90
24638;DHT22;12773;50.162;8.548;2023-12-22T16:38:31;10.60;99.90
24638;DHT22;12773;50.162;8.548;2023-12-22T16:41:19;10.60;99.90
24638;DHT22;12773;50.162;8.548;2023-12-22T16:44:07;10.50;99.90
24638;DHT22;12773;50.162;8.548;2023-12-22T16:46:54;10.40;99.90
24638;DHT22;12773;50.162;8.548;2023-12-22T16:49:41;10.20;99.90
24638;DHT22;12773;50.162;8.548;2023-12-22T16:52:29;10.20;99.90
24638;DHT22;12773;50.162;8.548;2023-12-22T16:55:17;10.30;99.90
24638;DHT22;12773;50.162;8.548;2023-12-22T16:58:04;10.30;99.90
24638;DHT22;12773;50.162;8.548;2023-12-22T17:00:52;10.30;99.90
24638;DHT22;12773;50.162;8.548;2023-12-22T17:03:41;10.30;99.90
24638;DHT22;12773;50.162;8.548;2023-12-22T17:06:29;10.40;99.90
24638;DHT22;12773;50.162;8.548;2023-12-22T17:09:17;10.40;99.90
24638;DHT22;12773;50.162;8.548;2023-12-22T17:12:05;10.40;99.90
24638;DHT22;12773;50.162;8.548;2023-12-22T17:14:52;10.40;99.90
24638;DHT22;12773;50.162;8.548;2023-12-22T17:17:39;10.40;99.90
24638;DHT22;12773;50.162;8.548;2023-12-22T17:20:27;10.40;99.90
24638;DHT22;12773;50.162;8.548;2023-12-22T17:23:15;10.40;99.90
24638;DHT22;12773;50.162;8.548;2023-12-22T17:26:03;10.50;99.90
24638;DHT22;12773;50.162;8.548;2023-12-22T17:28:51;10.50;99.90
24638;DHT22;12773;50.162;8.548;2023-12-22T17:31:39;10.60;99.90
24638;DHT22;12773;50.162;8.548;2023-12-22T17:34:27;10.50;99.90
24638;DHT22;12773;50.162;8.548;2023-12-22T17:37:14;10.60;99.90
24638;DHT22;12773;50.162;8.548;2023-12-22T17:40:02;10.60;99.90
24638;DHT22;12773;50.162;8.548;2023-12-22T17:42:49;10.60;99.90
24638;DHT22;12773;50.162;8.548;2023-12-22T17:45:37;10.70;99.90
24638;DHT22;12773;50.162;8.548;2023-12-22T17:48:24;10.70;99.90
24638;DHT22;12773;50.162;8.548;2023-12-22T17:51:12;10.80;99.90
24638;DHT22;12773;50.162;8.548;2023-12-22T17:53:59;10.80;99.90
24638;DHT22;12773;50.162;8.548;2023-12-22T17:56:47;10.70;99.90
24638;DHT22;12773;50.162;8.548;2023-12-22T17:59:34;10.80;99.90
24638;DHT22;12773;50.162;8.548;2023-12-22T18:02:23;10.80;99.90